»·PEaware :: INDIE33 KRNO-KRNO

INDIE33 :: KRNO-KRNO

FLIGHT INFORMATION

Flight Status: Arrived
Operator: Unknown
More flights by this operator :: More flights under this callsign
Pilot: Indie I. (23354)
Aircraft: BEECH AIRCRAFT T-6A TEXAN
(TEX2)
More flights by this aircraft type
Origin: KRNO Reno/Tahoe Intl
United States
Destination: KRNO Reno/Tahoe Intl
United States
More flights between these airports :: More routes between these airports
Route: +RV
File this flight plan on PilotEdge
Remarks:
Altitude:
(Current/Filed)
11,000ft
Speed:
(Current/Filed)
0kts
Departed: 23-Aug-19 11:01 AM
Arrived: 23-Aug-19 11:13 AM
Distance/Time
Traveled:
28nm/0:12
Distance/Time
To Go:
Arrived

Flight Plot

Page will automatically refresh every two minutes.

Flight plan parsing failed; only flown route is shown


Map Options




Map Legend


Flown Route
Filed Route
Departure Airport
Arrival Airport
Navaid (VOR, NDB)
Fix

Horizontal Profiles

Position Reports

Time Latitude Longitude Heading Altitude Ground
Speed
23-Aug-19 10:36 39.499290 -119.764122 2 4418ft 0kts
23-Aug-19 10:37 39.499292 -119.764122 2 4418ft 0kts
23-Aug-19 10:38 39.499294 -119.764122 2 4418ft 0kts
23-Aug-19 10:39 39.499503 -119.764126 355 4418ft 5kts
23-Aug-19 10:40 39.499542 -119.764131 352 4418ft 0kts
23-Aug-19 10:41 39.499542 -119.764131 352 4418ft 0kts
23-Aug-19 10:42 39.499542 -119.764131 352 4418ft 0kts
23-Aug-19 10:43 39.499542 -119.764131 352 4418ft 0kts
23-Aug-19 10:44 39.499604 -119.764149 345 4418ft 0kts
23-Aug-19 10:45 39.499604 -119.764149 345 4418ft 0kts
23-Aug-19 10:45 39.499604 -119.764149 345 4418ft 0kts
23-Aug-19 10:47 39.499604 -119.764149 345 4418ft 0kts
23-Aug-19 10:50 39.499768 -119.764272 327 4418ft 0kts
23-Aug-19 10:51 39.499770 -119.764274 327 4418ft 0kts
23-Aug-19 10:51 39.499771 -119.764275 327 4418ft 0kts
23-Aug-19 10:53 39.499773 -119.764276 327 4418ft 0kts
23-Aug-19 10:53 39.499458 -119.765193 187 4418ft 14kts
23-Aug-19 10:54 39.497814 -119.766146 269 4418ft 17kts
23-Aug-19 10:55 39.497833 -119.772991 271 4418ft 21kts
23-Aug-19 10:56 39.496987 -119.778629 176 4418ft 0kts
23-Aug-19 10:57 39.496926 -119.778622 173 4418ft 0kts
23-Aug-19 10:58 39.496924 -119.778622 173 4418ft 0kts
23-Aug-19 10:59 39.496236 -119.778110 93 4418ft 0kts
23-Aug-19 11:00 39.497183 -119.747952 63 4845ft 166kts
23-Aug-19 11:01 39.542966 -119.732791 5 5802ft 171kts
23-Aug-19 11:02 39.591457 -119.722228 9 7163ft 180kts
23-Aug-19 11:03 39.643089 -119.710919 14 8789ft 196kts
23-Aug-19 11:04 39.700150 -119.708401 1 10292ft 216kts
23-Aug-19 11:05 39.728149 -119.760488 231 11055ft 239kts
23-Aug-19 11:06 39.674125 -119.802250 191 12584ft 225kts
23-Aug-19 11:07 39.609505 -119.802402 167 13292ft 244kts
23-Aug-19 11:08 39.564643 -119.785721 83 12577ft 171kts
23-Aug-19 11:09 39.529814 -119.762517 176 8660ft 151kts
23-Aug-19 11:10 39.488683 -119.788360 267 6545ft 201kts
23-Aug-19 11:11 39.496255 -119.770618 91 4418ft 95kts
23-Aug-19 11:12 39.496433 -119.764322 246 4418ft 14kts
23-Aug-19 11:13 39.494085 -119.765175 182 4418ft 31kts
23-Aug-19 11:14 39.489386 -119.765553 258 4418ft 14kts
23-Aug-19 11:15 39.489352 -119.765927 269 4418ft 0kts
23-Aug-19 11:16 39.489352 -119.765930 269 4418ft 0kts
23-Aug-19 11:17 39.489352 -119.765933 269 4418ft 0kts
23-Aug-19 11:18 39.490610 -119.769183 0 4418ft 35kts
23-Aug-19 11:19 39.524763 -119.769101 359 5205ft 184kts
23-Aug-19 11:20 39.573543 -119.760212 9 7320ft 180kts
23-Aug-19 11:21 39.625718 -119.747454 16 9223ft 194kts
23-Aug-19 11:22 39.680018 -119.733828 13 10826ft 216kts
23-Aug-19 11:23 39.745388 -119.721233 13 10965ft 262kts
23-Aug-19 11:24 39.818675 -119.710684 5 10952ft 266kts
23-Aug-19 11:25 39.892525 -119.702758 7 10948ft 265kts
23-Aug-19 11:26 39.966048 -119.698198 4 10994ft 264kts

Navigation Log

Ident Type
Flight plan parsing failed, navigation log unavailable